createdAt,value
2023-04-15T00:01:19.334Z,8.19
2023-04-15T00:03:48.223Z,8.20
2023-04-15T00:06:15.430Z,8.16
2023-04-15T00:08:42.476Z,8.23
2023-04-15T00:11:09.714Z,8.05
2023-04-15T00:13:36.983Z,8.21
2023-04-15T00:16:04.553Z,8.25
2023-04-15T00:18:31.677Z,8.24
2023-04-15T00:20:59.487Z,8.23
2023-04-15T00:23:27.017Z,8.21
2023-04-15T00:25:54.571Z,8.23
2023-04-15T00:28:21.761Z,8.21
2023-04-15T00:30:49.425Z,8.23
2023-04-15T00:33:16.696Z,8.16
2023-04-15T00:35:43.805Z,8.14
2023-04-15T00:38:11.938Z,8.23
2023-04-15T00:40:39.194Z,8.21
2023-04-15T00:43:07.142Z,8.27
2023-04-15T00:45:34.274Z,8.25
2023-04-15T00:48:02.174Z,8.27
2023-04-15T00:50:29.632Z,8.18
2023-04-15T00:52:57.127Z,8.22
2023-04-15T00:55:24.159Z,8.17
2023-04-15T00:57:52.031Z,8.16
2023-04-15T01:00:20.575Z,8.22
2023-04-15T01:02:47.828Z,8.22
2023-04-15T01:05:17.512Z,8.21
2023-04-15T01:07:44.562Z,8.21
2023-04-15T01:10:11.822Z,8.26
2023-04-15T01:12:40.596Z,8.23
2023-04-15T01:15:09.380Z,8.25
2023-04-15T01:17:36.843Z,8.17
2023-04-15T01:20:05.654Z,8.06
2023-04-15T01:22:34.447Z,8.14
2023-04-15T01:25:08.439Z,8.16
2023-04-15T01:27:38.988Z,8.22
2023-04-15T01:30:07.978Z,8.09
2023-04-15T01:32:35.171Z,8.18
2023-04-15T01:35:03.169Z,8.24
2023-04-15T01:37:31.139Z,8.23
2023-04-15T01:39:58.198Z,8.24
2023-04-15T01:42:25.399Z,8.21
2023-04-15T01:44:52.795Z,8.24
2023-04-15T01:47:19.856Z,8.27
2023-04-15T01:49:46.990Z,8.24
2023-04-15T01:52:14.480Z,8.21
2023-04-15T01:54:41.772Z,8.28
2023-04-15T01:57:09.444Z,8.27
2023-04-15T01:59:37.543Z,8.25
2023-04-15T02:02:05.502Z,8.23
2023-04-15T02:04:34.679Z,8.30
2023-04-15T02:07:01.747Z,8.36
2023-04-15T02:09:29.271Z,8.37
2023-04-15T02:11:56.501Z,8.41
2023-04-15T02:14:23.557Z,8.35
2023-04-15T02:16:51.063Z,8.39
2023-04-15T02:19:18.478Z,8.35
2023-04-15T02:21:45.836Z,8.33
2023-04-15T02:24:12.970Z,8.35
2023-04-15T02:26:40.056Z,8.34
2023-04-15T02:29:07.238Z,8.40
2023-04-15T02:31:37.013Z,8.39
2023-04-15T02:34:04.710Z,8.47
2023-04-15T02:36:32.065Z,8.47
2023-04-15T02:38:59.497Z,8.45
2023-04-15T02:41:28.486Z,8.46
2023-04-15T02:43:55.861Z,8.50
2023-04-15T02:46:23.533Z,8.53
2023-04-15T02:48:51.387Z,8.49
2023-04-15T02:51:20.309Z,8.45
2023-04-15T02:53:48.666Z,8.51
2023-04-15T02:56:17.509Z,8.48
2023-04-15T02:58:45.938Z,8.48
2023-04-15T03:01:13.709Z,8.54
2023-04-15T03:03:41.272Z,8.55
2023-04-15T03:06:09.081Z,8.54
2023-04-15T03:08:36.529Z,8.51
2023-04-15T03:11:04.581Z,8.54
2023-04-15T03:13:31.793Z,8.49
2023-04-15T03:15:59.262Z,8.52
2023-04-15T03:18:26.587Z,8.51
2023-04-15T03:20:53.793Z,8.55
2023-04-15T03:23:21.193Z,8.50
2023-04-15T03:25:48.530Z,8.55
2023-04-15T03:28:15.794Z,8.60
2023-04-15T03:30:43.305Z,8.56
2023-04-15T03:33:10.442Z,8.37
2023-04-15T03:35:37.864Z,8.53
2023-04-15T03:38:05.013Z,8.57
2023-04-15T03:40:32.114Z,8.55
2023-04-15T03:42:59.140Z,8.45
2023-04-15T03:45:26.201Z,8.45
2023-04-15T03:47:53.279Z,8.55
2023-04-15T03:50:21.019Z,8.59
2023-04-15T03:52:50.637Z,8.60
2023-04-15T03:55:18.597Z,8.59
2023-04-15T03:57:46.507Z,8.51
2023-04-15T04:00:13.964Z,8.49
2023-04-15T04:02:41.739Z,8.42
2023-04-15T04:05:09.385Z,8.38
2023-04-15T04:07:36.602Z,8.33
2023-04-15T04:10:03.934Z,8.34
2023-04-15T04:12:31.210Z,8.38
2023-04-15T04:14:58.343Z,8.39
2023-04-15T04:17:25.535Z,8.32
2023-04-15T04:19:52.699Z,8.24
2023-04-15T04:22:24.088Z,8.27
2023-04-15T04:24:51.514Z,8.32
2023-04-15T04:27:18.804Z,8.35
2023-04-15T04:29:47.811Z,8.35
2023-04-15T04:32:15.033Z,8.27
2023-04-15T04:34:42.196Z,8.28
2023-04-15T04:37:09.306Z,8.23
2023-04-15T04:39:36.386Z,8.29
2023-04-15T04:42:03.440Z,8.35
2023-04-15T04:44:30.592Z,8.23
2023-04-15T04:46:57.622Z,8.24
2023-04-15T04:49:25.214Z,8.21
2023-04-15T04:51:52.268Z,8.23
2023-04-15T04:54:19.460Z,8.21
2023-04-15T04:56:47.230Z,8.18
2023-04-15T04:59:14.253Z,8.18
2023-04-15T05:01:41.993Z,8.17
2023-04-15T05:04:09.337Z,8.13
2023-04-15T05:06:36.989Z,8.17
2023-04-15T05:09:04.677Z,8.11
2023-04-15T05:11:32.266Z,8.20
2023-04-15T05:14:01.666Z,8.20
2023-04-15T05:16:28.828Z,8.23
2023-04-15T05:18:56.281Z,8.22
2023-04-15T05:21:23.724Z,8.21
2023-04-15T05:23:50.854Z,8.21
2023-04-15T05:26:18.080Z,8.25
2023-04-15T05:28:45.431Z,8.19
2023-04-15T05:31:12.904Z,8.20
2023-04-15T05:33:40.625Z,8.17
2023-04-15T05:36:08.078Z,8.33
2023-04-15T05:38:35.234Z,8.37
2023-04-15T05:41:02.255Z,8.35
2023-04-15T05:43:29.677Z,8.37
2023-04-15T05:45:56.969Z,8.43
2023-04-15T05:48:24.057Z,8.47
2023-04-15T05:50:51.058Z,8.49
2023-04-15T05:53:20.812Z,8.47
2023-04-15T05:55:48.132Z,8.46
2023-04-15T05:58:15.243Z,8.45
2023-04-15T06:00:42.262Z,8.38
2023-04-15T06:03:09.436Z,8.41
2023-04-15T06:05:36.785Z,8.40
2023-04-15T06:08:04.015Z,8.51
2023-04-15T06:10:31.110Z,8.51
2023-04-15T06:12:58.126Z,8.53
2023-04-15T06:15:25.210Z,8.57
2023-04-15T06:17:52.509Z,8.68
2023-04-15T06:20:19.576Z,8.61
2023-04-15T06:22:46.794Z,8.64
2023-04-15T06:25:14.223Z,8.67
2023-04-15T06:27:41.463Z,8.66
2023-04-15T06:30:09.073Z,8.71
2023-04-15T06:32:36.666Z,8.69
2023-04-15T06:35:04.430Z,8.59
2023-04-15T06:37:32.944Z,8.66
2023-04-15T06:40:00.507Z,8.63
2023-04-15T06:42:27.554Z,8.70
2023-04-15T06:44:54.578Z,8.79
2023-04-15T06:47:21.811Z,8.79
2023-04-15T06:49:49.017Z,8.91
2023-04-15T06:52:16.658Z,9.00
2023-04-15T06:54:43.747Z,9.09
2023-04-15T06:57:10.956Z,9.06
2023-04-15T06:59:38.085Z,9.07
2023-04-15T07:02:05.339Z,9.12
2023-04-15T07:04:32.859Z,9.18
2023-04-15T07:07:00.810Z,9.21
2023-04-15T07:09:28.019Z,9.20
2023-04-15T07:11:55.463Z,9.30
2023-04-15T07:14:23.176Z,9.33
2023-04-15T07:16:50.654Z,9.32
2023-04-15T07:19:17.763Z,9.38
2023-04-15T07:21:44.848Z,9.45
2023-04-15T07:24:12.174Z,9.47
2023-04-15T07:26:39.689Z,9.57
2023-04-15T07:29:06.723Z,9.62
2023-04-15T07:31:33.889Z,9.67
2023-04-15T07:34:01.152Z,9.81
2023-04-15T07:36:29.461Z,9.85
2023-04-15T07:38:57.127Z,9.97
2023-04-15T07:41:24.227Z,9.99
2023-04-15T07:43:51.671Z,10.05
2023-04-15T07:46:18.759Z,10.00
2023-04-15T07:48:46.205Z,10.03
2023-04-15T07:51:13.421Z,10.01
2023-04-15T07:53:40.807Z,10.09
2023-04-15T07:56:08.101Z,10.16
2023-04-15T07:58:35.134Z,10.17
2023-04-15T08:01:02.212Z,10.22
2023-04-15T08:03:29.474Z,10.38
2023-04-15T08:05:56.692Z,10.47
2023-04-15T08:08:23.910Z,10.61
2023-04-15T08:10:52.760Z,10.61
2023-04-15T08:13:21.032Z,10.56
2023-04-15T08:16:14.459Z,10.67
2023-04-15T08:18:41.852Z,10.73
2023-04-15T08:21:09.459Z,10.81
2023-04-15T08:23:36.769Z,10.76
2023-04-15T08:26:04.372Z,10.82
2023-04-15T08:28:31.395Z,10.82
2023-04-15T08:30:58.528Z,10.92
2023-04-15T08:33:25.715Z,10.97
2023-04-15T08:35:52.970Z,10.90
2023-04-15T08:38:20.121Z,10.89
2023-04-15T08:40:47.416Z,10.95
2023-04-15T08:43:24.218Z,11.00
2023-04-15T08:45:52.801Z,11.16
2023-04-15T08:48:21.115Z,11.22
2023-04-15T08:50:48.787Z,11.15
2023-04-15T08:53:15.902Z,11.30
2023-04-15T08:55:51.377Z,11.36
2023-04-15T08:58:20.258Z,11.41
2023-04-15T09:00:48.704Z,11.48
2023-04-15T09:03:17.685Z,11.67
2023-04-15T09:05:45.521Z,11.56
2023-04-15T09:08:12.754Z,11.65
2023-04-15T09:10:39.931Z,11.82
2023-04-15T09:13:07.174Z,11.90
2023-04-15T09:15:38.628Z,11.95
2023-04-15T09:18:07.017Z,12.00
2023-04-15T09:20:42.382Z,11.98
2023-04-15T09:23:14.422Z,11.87
2023-04-15T09:25:45.440Z,12.08
2023-04-15T09:28:12.584Z,12.11
2023-04-15T09:30:46.576Z,12.19
2023-04-15T09:33:14.958Z,12.26
2023-04-15T09:35:42.351Z,12.37
2023-04-15T09:38:12.900Z,12.52
2023-04-15T09:40:42.820Z,12.71
2023-04-15T09:43:13.250Z,12.90
2023-04-15T09:45:48.637Z,13.08
2023-04-15T09:48:23.673Z,13.40
2023-04-15T09:50:53.569Z,13.52
2023-04-15T09:53:22.902Z,13.58
2023-04-15T09:55:57.843Z,13.84
2023-04-15T09:58:33.391Z,13.96
2023-04-15T10:01:03.754Z,13.99
2023-04-15T10:03:34.338Z,13.97
2023-04-15T10:06:03.631Z,13.93
2023-04-15T10:08:33.234Z,14.08
2023-04-15T10:11:04.187Z,13.96
2023-04-15T10:13:38.611Z,14.09
2023-04-15T10:16:11.247Z,14.40
2023-04-15T10:18:43.125Z,14.65
2023-04-15T10:21:10.926Z,14.76
2023-04-15T10:23:38.853Z,14.81
2023-04-15T10:26:06.678Z,14.78
2023-04-15T10:28:34.628Z,14.69
2023-04-15T10:31:02.448Z,14.80
2023-04-15T10:33:30.068Z,14.73
2023-04-15T10:35:58.052Z,14.85
2023-04-15T10:38:32.018Z,15.00
2023-04-15T10:41:25.389Z,15.36
2023-04-15T10:43:53.643Z,15.66
2023-04-15T10:46:37.718Z,15.80
2023-04-15T10:49:13.187Z,16.03
2023-04-15T10:51:45.267Z,16.30
2023-04-15T10:54:31.459Z,16.41
2023-04-15T10:57:02.061Z,16.39
2023-04-15T10:59:33.231Z,16.05
2023-04-15T11:02:02.257Z,16.17
2023-04-15T11:04:58.056Z,16.04
2023-04-15T11:07:34.772Z,15.98
2023-04-15T11:10:02.077Z,16.01
2023-04-15T11:12:36.453Z,16.03
2023-04-15T11:15:34.849Z,15.88
2023-04-15T11:18:18.291Z,15.55
2023-04-15T11:20:50.637Z,15.27
2023-04-15T11:23:29.112Z,14.96
2023-04-15T11:25:58.064Z,14.81
2023-04-15T11:28:32.438Z,14.77
2023-04-15T11:31:06.335Z,14.67
2023-04-15T11:33:36.316Z,14.82
2023-04-15T11:36:04.429Z,14.82
2023-04-15T11:38:31.923Z,14.97
2023-04-15T11:40:59.034Z,15.09
2023-04-15T11:43:26.851Z,15.09
2023-04-15T11:45:56.477Z,15.03
2023-04-15T11:48:26.520Z,15.09
2023-04-15T11:50:59.197Z,15.32
2023-04-15T11:53:59.723Z,15.55
2023-04-15T11:56:27.662Z,15.70
2023-04-15T11:59:00.058Z,15.63
2023-04-15T12:01:39.725Z,15.52
2023-04-15T12:04:21.465Z,15.26
2023-04-15T12:06:50.274Z,15.16
2023-04-15T12:09:17.654Z,15.35
2023-04-15T12:11:49.635Z,15.60
2023-04-15T12:14:16.681Z,15.73
2023-04-15T12:16:54.218Z,15.87
2023-04-15T12:19:28.785Z,15.75
2023-04-15T12:22:05.396Z,15.72
2023-04-15T12:24:36.308Z,15.64
2023-04-15T12:27:08.360Z,15.49
2023-04-15T12:29:38.661Z,15.19
2023-04-15T12:32:09.271Z,15.00
2023-04-15T12:34:53.173Z,14.79
2023-04-15T12:37:24.325Z,14.71
2023-04-15T12:39:52.424Z,14.75
2023-04-15T12:42:19.689Z,14.73
2023-04-15T12:44:47.099Z,14.75
2023-04-15T12:47:14.706Z,14.78
2023-04-15T12:49:41.822Z,14.82
2023-04-15T12:52:09.053Z,14.96
2023-04-15T12:54:36.580Z,15.11
2023-04-15T12:57:06.953Z,15.29
2023-04-15T12:59:35.497Z,15.45
2023-04-15T13:02:03.676Z,15.61
2023-04-15T13:04:31.678Z,15.64
2023-04-15T13:07:00.845Z,15.64
2023-04-15T13:09:27.940Z,15.71
2023-04-15T13:11:56.370Z,15.87
2023-04-15T13:14:23.513Z,15.89
2023-04-15T13:16:52.197Z,15.92
2023-04-15T13:19:19.415Z,16.02
2023-04-15T13:21:46.417Z,15.92
2023-04-15T13:24:13.747Z,15.84
2023-04-15T13:26:41.013Z,15.73
2023-04-15T13:29:08.208Z,15.73
2023-04-15T13:31:35.558Z,15.66
2023-04-15T13:34:03.655Z,15.61
2023-04-15T13:36:31.329Z,15.73
2023-04-15T13:39:00.203Z,15.73
2023-04-15T13:41:27.391Z,15.75
2023-04-15T13:43:54.961Z,15.86
2023-04-15T13:46:22.287Z,16.05
2023-04-15T13:48:50.016Z,16.10
2023-04-15T13:51:17.231Z,15.99
2023-04-15T13:53:44.440Z,15.94
2023-04-15T13:56:11.495Z,15.78
2023-04-15T13:58:38.895Z,15.84
2023-04-15T14:01:07.333Z,15.59
2023-04-15T14:03:36.557Z,15.51
2023-04-15T14:06:05.220Z,15.40
2023-04-15T14:08:32.355Z,15.28
2023-04-15T14:10:59.719Z,15.10
2023-04-15T14:13:26.910Z,15.05
2023-04-15T14:15:54.385Z,15.11
2023-04-15T14:18:21.484Z,15.23
2023-04-15T14:20:48.650Z,15.22
2023-04-15T14:23:16.022Z,15.23
2023-04-15T14:25:43.597Z,15.30
2023-04-15T14:28:11.846Z,15.36
2023-04-15T14:30:39.272Z,15.36
2023-04-15T14:33:06.407Z,15.36
2023-04-15T14:35:33.472Z,15.22
2023-04-15T14:38:00.655Z,15.15
2023-04-15T14:40:27.760Z,15.06
2023-04-15T14:42:54.827Z,15.05
2023-04-15T14:45:22.040Z,15.13
2023-04-15T14:47:49.173Z,15.14
2023-04-15T14:50:17.397Z,15.13
2023-04-15T14:52:44.424Z,15.21
2023-04-15T14:55:12.503Z,15.28
2023-04-15T14:57:41.257Z,15.14
2023-04-15T15:00:12.200Z,15.14
2023-04-15T15:02:42.234Z,15.15
2023-04-15T15:05:10.675Z,15.29
2023-04-15T15:07:43.745Z,15.32
2023-04-15T15:10:11.295Z,15.27
2023-04-15T15:12:38.487Z,15.24
2023-04-15T15:15:15.421Z,15.20
2023-04-15T15:17:43.564Z,15.04
2023-04-15T15:20:11.055Z,14.92
2023-04-15T15:22:38.273Z,14.79
2023-04-15T15:25:05.945Z,14.81
2023-04-15T15:27:33.054Z,14.80
2023-04-15T15:30:00.427Z,14.71
2023-04-15T15:32:27.579Z,14.72
2023-04-15T15:34:54.758Z,14.68
2023-04-15T15:37:21.963Z,14.73
2023-04-15T15:39:50.827Z,14.64
2023-04-15T15:42:19.502Z,14.81
2023-04-15T15:44:46.684Z,14.92
2023-04-15T15:47:13.892Z,14.93
2023-04-15T15:49:41.048Z,14.90
2023-04-15T15:52:09.914Z,14.88
2023-04-15T15:54:37.747Z,14.94
2023-04-15T15:57:04.799Z,15.01
2023-04-15T15:59:33.102Z,14.96
2023-04-15T16:02:02.538Z,14.94
2023-04-15T16:04:30.182Z,14.91
2023-04-15T16:06:57.462Z,14.82
2023-04-15T16:09:24.596Z,14.75
2023-04-15T16:11:52.285Z,14.56
2023-04-15T16:14:19.711Z,14.34
2023-04-15T16:16:47.031Z,14.42
2023-04-15T16:19:14.117Z,14.32
2023-04-15T16:21:41.247Z,14.20
2023-04-15T16:24:08.327Z,14.07
2023-04-15T16:26:35.418Z,14.01
2023-04-15T16:29:03.545Z,14.02
2023-04-15T16:31:31.311Z,13.87
2023-04-15T16:33:58.625Z,13.87
2023-04-15T16:36:26.120Z,13.85
2023-04-15T16:38:53.718Z,13.75
2023-04-15T16:41:21.639Z,13.70
2023-04-15T16:43:48.861Z,13.63
2023-04-15T16:46:16.297Z,13.48
2023-04-15T16:48:43.555Z,13.37
2023-04-15T16:51:10.687Z,13.22
2023-04-15T16:53:38.308Z,13.15
2023-04-15T16:56:06.073Z,13.06
2023-04-15T16:58:33.183Z,12.85
2023-04-15T17:01:01.577Z,12.90
2023-04-15T17:03:28.970Z,12.85
2023-04-15T17:05:56.273Z,12.87
2023-04-15T17:08:23.338Z,12.63
2023-04-15T17:10:51.925Z,12.59
2023-04-15T17:13:19.379Z,12.53
2023-04-15T17:15:46.570Z,12.42
2023-04-15T17:18:14.057Z,12.35
2023-04-15T17:20:41.495Z,12.33
2023-04-15T17:23:09.148Z,12.23
2023-04-15T17:25:36.272Z,12.20
2023-04-15T17:28:04.031Z,12.10
2023-04-15T17:30:33.007Z,12.10
2023-04-15T17:33:01.166Z,12.13
2023-04-15T17:35:28.295Z,12.06
2023-04-15T17:37:55.498Z,12.00
2023-04-15T17:40:22.586Z,11.89
2023-04-15T17:42:49.729Z,11.89
2023-04-15T17:45:17.263Z,11.85
2023-04-15T17:47:44.482Z,11.87
2023-04-15T17:50:11.666Z,11.67
2023-04-15T17:52:38.756Z,11.77
2023-04-15T17:55:06.972Z,11.79
2023-04-15T17:57:34.063Z,11.71
2023-04-15T18:00:02.240Z,11.64
2023-04-15T18:02:32.697Z,11.51
2023-04-15T18:05:01.150Z,11.56
2023-04-15T18:07:28.597Z,11.54
2023-04-15T18:09:56.047Z,11.46
2023-04-15T18:12:23.465Z,11.28
2023-04-15T18:14:50.729Z,11.33
2023-04-15T18:17:18.750Z,11.33
2023-04-15T18:19:46.389Z,11.25
2023-04-15T18:22:13.624Z,11.14
2023-04-15T18:24:41.048Z,11.17
2023-04-15T18:27:08.393Z,11.03
2023-04-15T18:29:36.956Z,11.00
2023-04-15T18:32:04.578Z,10.98
2023-04-15T18:34:31.690Z,10.97
2023-04-15T18:36:59.147Z,10.89
2023-04-15T18:39:27.400Z,10.89
2023-04-15T18:41:56.525Z,10.90
2023-04-15T18:44:23.506Z,10.82
2023-04-15T18:46:50.510Z,10.84
2023-04-15T18:49:17.572Z,10.88
2023-04-15T18:51:44.615Z,10.80
2023-04-15T18:54:11.692Z,10.79
2023-04-15T18:56:39.144Z,10.77
2023-04-15T18:59:21.117Z,10.76
2023-04-15T19:01:53.410Z,10.76
2023-04-15T19:04:20.582Z,10.72
2023-04-15T19:06:48.367Z,10.52
2023-04-15T19:09:16.271Z,10.51
2023-04-15T19:11:43.978Z,10.45
2023-04-15T19:14:11.755Z,10.53
2023-04-15T19:16:38.845Z,10.56
2023-04-15T19:19:06.700Z,10.50
2023-04-15T19:21:34.116Z,10.52
2023-04-15T19:24:01.814Z,10.41
2023-04-15T19:26:28.948Z,10.29
2023-04-15T19:28:58.899Z,10.25
2023-04-15T19:31:26.320Z,10.22
2023-04-15T19:33:53.746Z,10.16
2023-04-15T19:36:21.339Z,10.05
2023-04-15T19:38:48.549Z,9.95
2023-04-15T19:41:15.930Z,9.90
2023-04-15T19:43:43.021Z,9.89
2023-04-15T19:46:13.277Z,9.79
2023-04-15T19:48:40.508Z,9.66
2023-04-15T19:51:07.541Z,9.69
2023-04-15T19:53:34.721Z,9.64
2023-04-15T19:56:02.058Z,9.69
2023-04-15T19:58:29.499Z,9.71
2023-04-15T20:00:56.780Z,9.62
2023-04-15T20:03:24.258Z,9.56
2023-04-15T20:05:51.533Z,9.51
2023-04-15T20:08:18.987Z,9.51
2023-04-15T20:10:46.378Z,9.47
2023-04-15T20:13:13.551Z,9.48
2023-04-15T20:15:40.625Z,9.47
2023-04-15T20:18:07.732Z,9.43
2023-04-15T20:20:35.368Z,9.32
2023-04-15T20:23:02.467Z,9.35
2023-04-15T20:25:29.657Z,9.19
2023-04-15T20:28:00.345Z,9.12
2023-04-15T20:30:29.699Z,9.04
2023-04-15T20:32:57.698Z,8.95
2023-04-15T20:35:28.415Z,8.90
2023-04-15T20:37:55.904Z,8.85
2023-04-15T20:40:23.095Z,8.81
2023-04-15T20:42:50.087Z,8.80
2023-04-15T20:45:17.367Z,8.66
2023-04-15T20:47:44.551Z,8.61
2023-04-15T20:50:12.068Z,8.61
2023-04-15T20:52:39.676Z,8.57
2023-04-15T20:55:07.840Z,8.63
2023-04-15T20:57:34.913Z,8.61
2023-04-15T21:00:02.667Z,8.64
2023-04-15T21:02:30.010Z,8.67
2023-04-15T21:04:59.526Z,8.70
2023-04-15T21:07:26.632Z,8.75
2023-04-15T21:09:55.728Z,8.72
2023-04-15T21:12:22.928Z,8.63
2023-04-15T21:14:50.592Z,8.63
2023-04-15T21:17:17.751Z,8.56
2023-04-15T21:19:44.823Z,8.47
2023-04-15T21:22:11.886Z,8.53
2023-04-15T21:24:38.950Z,8.59
2023-04-15T21:27:06.324Z,8.59
2023-04-15T21:29:33.476Z,8.63
2023-04-15T21:32:00.971Z,8.57
2023-04-15T21:34:28.208Z,8.61
2023-04-15T21:36:55.310Z,8.54
2023-04-15T21:39:22.661Z,8.54
2023-04-15T21:41:49.837Z,8.47
2023-04-15T21:44:17.182Z,8.57
2023-04-15T21:46:46.016Z,8.57
2023-04-15T21:49:13.937Z,8.58
2023-04-15T21:51:41.320Z,8.54
2023-04-15T21:54:08.435Z,8.52
2023-04-15T21:56:36.018Z,8.58
2023-04-15T21:59:03.881Z,8.45
2023-04-15T22:01:31.494Z,8.42
2023-04-15T22:03:58.908Z,8.54
2023-04-15T22:06:27.161Z,8.50
2023-04-15T22:08:57.394Z,8.53
2023-04-15T22:11:28.601Z,8.54
2023-04-15T22:13:59.644Z,8.44
2023-04-15T22:16:27.470Z,8.48
2023-04-15T22:18:55.574Z,8.51
2023-04-15T22:21:23.383Z,8.49
2023-04-15T22:23:51.615Z,8.44
2023-04-15T22:26:18.846Z,8.53
2023-04-15T22:28:46.096Z,8.51
2023-04-15T22:31:14.877Z,8.52
2023-04-15T22:33:42.090Z,8.59
2023-04-15T22:36:09.467Z,8.47
2023-04-15T22:38:36.623Z,8.47
2023-04-15T22:41:03.781Z,8.44
2023-04-15T22:43:30.797Z,8.44
2023-04-15T22:45:57.964Z,8.57
2023-04-15T22:48:25.338Z,8.60
2023-04-15T22:50:52.684Z,8.57
2023-04-15T22:53:20.214Z,8.59
2023-04-15T22:55:48.513Z,8.50
2023-04-15T22:58:17.385Z,8.53
2023-04-15T23:00:44.733Z,8.54
2023-04-15T23:03:12.078Z,8.54
2023-04-15T23:05:42.488Z,8.44
2023-04-15T23:08:09.714Z,8.36
2023-04-15T23:10:38.152Z,8.43
2023-04-15T23:13:05.278Z,8.38
2023-04-15T23:15:32.374Z,8.38
2023-04-15T23:18:00.564Z,8.44
2023-04-15T23:20:27.638Z,8.44
2023-04-15T23:22:54.743Z,8.35
2023-04-15T23:25:22.740Z,8.34
2023-04-15T23:27:49.824Z,8.40
2023-04-15T23:30:17.007Z,8.37
2023-04-15T23:32:44.293Z,8.34
2023-04-15T23:35:11.651Z,8.42
2023-04-15T23:37:38.782Z,8.31
2023-04-15T23:40:06.948Z,8.36
2023-04-15T23:42:34.159Z,8.39
2023-04-15T23:45:01.193Z,8.43
2023-04-15T23:47:28.654Z,8.40
2023-04-15T23:49:56.421Z,8.42
2023-04-15T23:52:23.592Z,8.52
2023-04-15T23:54:51.092Z,8.39
2023-04-15T23:57:19.157Z,8.43
2023-04-15T23:59:46.530Z,8.44
